Time;durP1;ratioP1;P1;durP2;ratioP2;P2;SDS_P1;SDS_P2;PMS_P1;PMS_P2;Temp;Humidity;BMP_temperature;BMP_pressure;BME280_temperature;BME280_humidity;BME280_pressure;Samples;Min_cycle;Max_cycle;Signal;HPM_P1;HPM_P2
2022/03/18 00:01:42;;;;;;;7.97;2.90;;;7.50;99.90;;;;;;4157952;28;20537;-83
2022/03/18 00:03:44;;;;;;;4.80;2.63;;;7.30;99.90;;;;;;4168028;28;20496;-83
2022/03/18 00:05:46;;;;;;;4.83;2.90;;;7.50;99.90;;;;;;4157926;28;20508;-83
2022/03/18 00:07:49;;;;;;;7.53;2.93;;;7.50;99.90;;;;;;4154374;28;20490;-85
2022/03/18 00:09:51;;;;;;;6.17;3.00;;;7.40;99.90;;;;;;4149792;28;20467;-85
2022/03/18 00:11:53;;;;;;;5.17;2.70;;;8.10;99.90;;;;;;4156286;28;21047;-85
2022/03/18 00:13:55;;;;;;;6.60;2.83;;;7.50;99.90;;;;;;4147348;28;20473;-84
2022/03/18 00:15:58;;;;;;;6.53;3.30;;;7.70;99.90;;;;;;4146454;28;20482;-84
2022/03/18 00:18:00;;;;;;;6.17;2.60;;;7.80;99.90;;;;;;4151167;28;20497;-84
2022/03/18 00:20:06;;;;;;;5.87;2.40;;;7.40;99.90;;;;;;4146474;28;20447;-84
2022/03/18 00:22:08;;;;;;;5.50;2.80;;;7.40;99.90;;;;;;4148762;28;20462;-85
2022/03/18 00:24:10;;;;;;;6.10;2.67;;;7.40;99.90;;;;;;4158552;28;20524;-84
2022/03/18 00:26:12;;;;;;;4.13;2.43;;;7.40;99.90;;;;;;4146120;28;20523;-85
2022/03/18 00:28:14;;;;;;;7.13;2.63;;;7.60;99.90;;;;;;4157919;28;20477;-86
2022/03/18 00:30:17;;;;;;;7.47;2.50;;;7.40;99.90;;;;;;4146775;28;20481;-84
2022/03/18 00:32:20;;;;;;;7.17;3.17;;;7.50;99.90;;;;;;4142431;28;20533;-84
2022/03/18 00:34:23;;;;;;;6.53;3.00;;;7.30;99.90;;;;;;4154012;28;20817;-84
2022/03/18 00:36:25;;;;;;;4.80;2.57;;;7.40;99.90;;;;;;4147492;28;20478;-84
2022/03/18 00:38:27;;;;;;;6.60;2.67;;;7.40;99.90;;;;;;4150713;28;20485;-84
2022/03/18 00:40:29;;;;;;;6.23;2.70;;;7.40;99.90;;;;;;4150843;28;20540;-84
2022/03/18 00:42:31;;;;;;;6.90;2.90;;;7.30;99.90;;;;;;4131419;28;20893;-84
2022/03/18 00:44:33;;;;;;;8.37;2.80;;;7.30;99.90;;;;;;4134973;28;20496;-84
2022/03/18 00:46:35;;;;;;;5.50;2.30;;;7.30;99.90;;;;;;4147048;28;20477;-84
2022/03/18 00:53:17;;;;;;;8.77;3.40;;;7.20;99.90;;;;;;4159315;28;20518;-84
2022/03/18 00:55:18;;;;;;;5.40;2.67;;;7.20;99.90;;;;;;4152569;28;21009;-84
2022/03/18 00:57:20;;;;;;;4.90;2.40;;;7.20;99.90;;;;;;4149331;28;20552;-84
2022/03/18 00:59:22;;;;;;;5.30;2.40;;;7.20;99.90;;;;;;4147754;28;20588;-84
2022/03/18 01:01:26;;;;;;;8.33;2.93;;;7.20;99.90;;;;;;4133887;28;20475;-84
2022/03/18 01:03:28;;;;;;;6.17;2.60;;;7.20;99.90;;;;;;4154536;28;20966;-84
2022/03/18 01:05:31;;;;;;;6.00;2.70;;;7.20;99.90;;;;;;4146045;28;20470;-84
2022/03/18 01:07:33;;;;;;;6.67;2.60;;;7.20;99.90;;;;;;4142268;28;20491;-84
2022/03/18 01:09:35;;;;;;;4.63;2.03;;;7.60;99.90;;;;;;4141298;28;20470;-84
2022/03/18 01:11:37;;;;;;;8.20;2.50;;;7.20;99.90;;;;;;4140760;28;21010;-84
2022/03/18 01:13:38;;;;;;;6.30;2.40;;;7.20;99.90;;;;;;4146761;28;20858;-84
2022/03/18 01:15:40;;;;;;;5.80;2.30;;;7.10;99.90;;;;;;4158529;28;20472;-84
2022/03/18 01:17:42;;;;;;;5.47;2.43;;;7.10;99.90;;;;;;4143777;28;20996;-83
2022/03/18 01:19:44;;;;;;;5.70;2.23;;;7.10;99.90;;;;;;4137322;28;20461;-84
2022/03/18 01:21:47;;;;;;;4.97;2.50;;;7.10;99.90;;;;;;4145693;28;20466;-83
2022/03/18 01:23:49;;;;;;;6.20;2.63;;;7.00;99.90;;;;;;4147067;28;20812;-83
2022/03/18 01:25:51;;;;;;;6.97;2.53;;;7.10;99.90;;;;;;4146443;28;20482;-84
2022/03/18 01:27:53;;;;;;;8.03;3.13;;;7.10;99.90;;;;;;4146484;28;20563;-84
2022/03/18 01:29:55;;;;;;;8.07;2.83;;;7.10;99.90;;;;;;4154372;28;21174;-84
2022/03/18 01:31:56;;;;;;;6.63;2.70;;;7.00;99.90;;;;;;4160191;28;20489;-84
2022/03/18 01:33:58;;;;;;;8.13;2.77;;;7.10;99.90;;;;;;4145937;28;20539;-84
2022/03/18 01:36:00;;;;;;;9.30;3.23;;;7.80;99.90;;;;;;4145746;28;20462;-84
2022/03/18 01:38:03;;;;;;;7.27;2.37;;;7.00;99.90;;;;;;4146316;28;20482;-84
2022/03/18 01:40:06;;;;;;;7.17;2.60;;;7.00;99.90;;;;;;4146894;28;21305;-84
2022/03/18 01:42:08;;;;;;;6.87;2.73;;;7.00;99.90;;;;;;4148320;28;20504;-84
2022/03/18 01:44:10;;;;;;;6.63;2.63;;;7.00;99.90;;;;;;4165646;28;20464;-84
2022/03/18 01:46:12;;;;;;;4.83;2.47;;;7.00;99.90;;;;;;4149444;28;20535;-84
2022/03/18 01:48:14;;;;;;;5.50;2.33;;;7.00;99.90;;;;;;4145409;28;20503;-84
2022/03/18 01:50:16;;;;;;;6.30;2.27;;;7.10;99.90;;;;;;4147298;28;20496;-84
2022/03/18 01:52:18;;;;;;;7.03;2.67;;;7.00;99.90;;;;;;4144358;28;20492;-83
2022/03/18 01:56:41;;;;;;;7.90;2.53;;;7.00;99.90;;;;;;4145852;28;20520;-84
2022/03/18 01:58:43;;;;;;;7.97;2.47;;;7.00;99.90;;;;;;4145905;28;20492;-84
2022/03/18 02:00:44;;;;;;;7.03;2.40;;;6.90;99.90;;;;;;4146013;28;20512;-84
2022/03/18 02:02:47;;;;;;;4.00;2.20;;;6.90;99.90;;;;;;4145780;28;20885;-84
2022/03/18 02:04:49;;;;;;;5.20;2.43;;;6.90;99.90;;;;;;4155901;28;20477;-84
2022/03/18 02:06:55;;;;;;;6.80;2.63;;;6.90;99.90;;;;;;4146142;28;20477;-84
2022/03/18 02:08:56;;;;;;;6.70;2.77;;;7.20;99.90;;;;;;4139799;28;20465;-84
2022/03/18 02:11:03;;;;;;;8.83;2.90;;;6.90;99.90;;;;;;4147805;28;20464;-84
2022/03/18 02:13:05;;;;;;;5.67;2.40;;;7.30;99.90;;;;;;4146823;28;20485;-84
2022/03/18 02:15:08;;;;;;;7.77;2.67;;;6.90;99.90;;;;;;4151950;28;20961;-84
2022/03/18 02:17:11;;;;;;;4.80;2.30;;;6.90;99.90;;;;;;4148742;28;20492;-84
2022/03/18 02:19:13;;;;;;;6.17;2.70;;;6.90;99.90;;;;;;4145318;28;20863;-84
2022/03/18 02:21:19;;;;;;;6.50;2.70;;;6.80;99.90;;;;;;4144735;28;20465;-84
2022/03/18 02:23:22;;;;;;;4.77;2.67;;;6.80;99.90;;;;;;4152656;28;20472;-84
2022/03/18 02:25:25;;;;;;;7.57;2.60;;;6.80;99.90;;;;;;4146104;28;20465;-84
2022/03/18 02:27:26;;;;;;;6.23;2.80;;;6.50;99.90;;;;;;4146011;28;20481;-84
2022/03/18 02:29:29;;;;;;;7.10;2.37;;;6.80;99.90;;;;;;4149715;28;20539;-84
2022/03/18 02:31:34;;;;;;;7.07;2.43;;;7.20;99.90;;;;;;4146667;28;20553;-84
2022/03/18 02:33:36;;;;;;;7.70;2.57;;;6.80;99.90;;;;;;4159466;28;20487;-84
2022/03/18 02:35:38;;;;;;;6.23;2.10;;;6.80;99.90;;;;;;4162445;28;20461;-84
2022/03/18 02:37:39;;;;;;;6.07;2.30;;;6.80;99.90;;;;;;4151134;28;20496;-84
2022/03/18 02:39:43;;;;;;;7.03;2.60;;;6.80;99.90;;;;;;4149127;28;20450;-84
2022/03/18 02:41:44;;;;;;;7.20;2.40;;;6.80;99.90;;;;;;4143995;28;20505;-83
2022/03/18 02:43:47;;;;;;;6.13;2.40;;;6.80;99.90;;;;;;4160841;28;20464;-84
2022/03/18 02:45:49;;;;;;;9.93;2.73;;;6.80;99.90;;;;;;4158988;28;20449;-84
2022/03/18 02:47:50;;;;;;;9.77;2.10;;;6.80;99.90;;;;;;4157844;28;20489;-84
2022/03/18 02:49:52;;;;;;;7.60;2.53;;;7.00;99.90;;;;;;4162160;28;20844;-84
2022/03/18 02:51:54;;;;;;;7.57;2.60;;;6.70;99.90;;;;;;4149645;28;20498;-84
2022/03/18 02:53:57;;;;;;;6.53;2.50;;;6.70;99.90;;;;;;4162657;28;20460;-84
2022/03/18 02:56:02;;;;;;;6.87;2.27;;;6.70;99.90;;;;;;4156023;28;20460;-85
2022/03/18 02:58:04;;;;;;;6.77;2.00;;;6.70;99.90;;;;;;4162509;28;20542;-84
2022/03/18 03:00:07;;;;;;;4.97;2.20;;;6.50;99.90;;;;;;4161655;28;20511;-84
2022/03/18 03:02:09;;;;;;;6.80;2.50;;;6.70;99.90;;;;;;4148726;28;20462;-84
2022/03/18 03:04:11;;;;;;;9.97;2.10;;;6.70;99.90;;;;;;4150950;28;20951;-83
2022/03/18 03:08:32;;;;;;;6.37;2.20;;;6.80;99.90;;;;;;4148553;28;21106;-83
2022/03/18 03:10:35;;;;;;;7.30;2.43;;;6.90;99.90;;;;;;4134957;28;20451;-84
2022/03/18 03:12:38;;;;;;;4.47;2.00;;;6.70;99.90;;;;;;4162760;28;20320;-84
2022/03/18 03:14:39;;;;;;;5.17;2.03;;;6.70;99.90;;;;;;4152583;28;20457;-84
2022/03/18 03:16:42;;;;;;;7.83;2.57;;;6.70;99.90;;;;;;4149965;28;20554;-84
2022/03/18 03:18:43;;;;;;;8.57;2.70;;;6.60;99.90;;;;;;4146346;28;20500;-84
2022/03/18 03:20:45;;;;;;;8.37;2.37;;;6.60;99.90;;;;;;4151141;28;20447;-84
2022/03/18 03:22:47;;;;;;;4.23;2.27;;;7.30;99.90;;;;;;4161320;28;20500;-83
2022/03/18 03:24:49;;;;;;;5.03;2.20;;;6.60;99.90;;;;;;4150264;28;20465;-84
2022/03/18 03:26:50;;;;;;;5.90;2.00;;;7.40;99.90;;;;;;4161913;28;20506;-84
2022/03/18 03:28:54;;;;;;;6.10;2.03;;;6.60;99.90;;;;;;4166892;28;20468;-84
2022/03/18 03:30:55;;;;;;;10.10;2.40;;;6.60;99.90;;;;;;4161018;28;20494;-84
2022/03/18 03:32:57;;;;;;;6.83;2.23;;;6.60;99.90;;;;;;4152902;28;20497;-84
2022/03/18 03:35:00;;;;;;;6.60;2.13;;;6.60;99.90;;;;;;4148996;28;20503;-84
2022/03/18 03:37:01;;;;;;;6.93;2.07;;;6.60;99.90;;;;;;4150160;28;20500;-84
2022/03/18 03:39:03;;;;;;;8.30;2.10;;;6.60;99.90;;;;;;4151119;28;20457;-84
2022/03/18 03:41:05;;;;;;;7.70;1.97;;;6.60;99.90;;;;;;4152875;28;21457;-84
2022/03/18 03:43:08;;;;;;;11.10;2.53;;;6.60;99.90;;;;;;4164242;28;20518;-83
2022/03/18 03:45:11;;;;;;;7.23;2.20;;;6.50;99.90;;;;;;4162009;28;20483;-84
2022/03/18 03:47:13;;;;;;;6.73;1.87;;;6.50;99.90;;;;;;4155125;28;21096;-84
2022/03/18 03:49:15;;;;;;;6.83;1.80;;;6.50;99.90;;;;;;4159669;28;20462;-84
2022/03/18 03:51:17;;;;;;;6.13;2.00;;;6.50;99.90;;;;;;4153300;28;20462;-83
2022/03/18 03:53:19;;;;;;;5.27;1.93;;;7.10;99.90;;;;;;4171590;28;20504;-83
2022/03/18 03:55:20;;;;;;;6.10;1.87;;;6.50;99.90;;;;;;4173790;28;20464;-84
2022/03/18 03:57:22;;;;;;;7.53;1.97;;;6.40;99.90;;;;;;4165791;28;20489;-84
2022/03/18 03:59:24;;;;;;;7.83;2.00;;;6.50;99.90;;;;;;4163561;28;20474;-83
2022/03/18 04:01:27;;;;;;;8.27;2.47;;;7.00;99.90;;;;;;4148128;28;20442;-83
2022/03/18 04:03:29;;;;;;;8.53;2.87;;;6.40;99.90;;;;;;4155795;28;20466;-83
2022/03/18 04:05:31;;;;;;;9.13;3.30;;;6.60;99.90;;;;;;4157941;28;21333;-83
2022/03/18 04:07:32;;;;;;;12.57;2.50;;;6.50;99.90;;;;;;4159684;28;21215;-83
2022/03/18 04:09:34;;;;;;;9.20;2.33;;;6.40;99.90;;;;;;4155744;28;20476;-83
2022/03/18 04:11:36;;;;;;;10.77;2.50;;;6.50;99.90;;;;;;4156110;28;20921;-83
2022/03/18 04:13:38;;;;;;;7.17;1.97;;;6.40;99.90;;;;;;4159384;28;20489;-83
2022/03/18 04:15:40;;;;;;;8.00;2.13;;;6.40;99.90;;;;;;4153769;28;21165;-83
2022/03/18 04:17:44;;;;;;;6.97;2.00;;;6.40;99.90;;;;;;4156446;28;20508;-82
2022/03/18 04:19:46;;;;;;;9.13;2.30;;;6.40;99.90;;;;;;4156005;28;20472;-83
2022/03/18 04:21:48;;;;;;;6.93;2.00;;;6.40;99.90;;;;;;4153566;28;20484;-82
2022/03/18 04:23:49;;;;;;;6.40;2.00;;;6.40;99.90;;;;;;4153769;28;20467;-83
2022/03/18 04:25:51;;;;;;;5.93;1.50;;;6.40;99.90;;;;;;4155232;28;20477;-82
2022/03/18 04:27:53;;;;;;;8.90;2.37;;;6.60;99.90;;;;;;4162767;28;20481;-83
2022/03/18 04:29:55;;;;;;;8.00;2.13;;;6.30;99.90;;;;;;4161110;28;20476;-83
2022/03/18 04:31:57;;;;;;;9.43;2.10;;;6.30;99.90;;;;;;4160611;28;20896;-83
2022/03/18 04:34:00;;;;;;;7.70;2.37;;;6.30;99.90;;;;;;4165227;28;20484;-82
2022/03/18 04:36:02;;;;;;;8.47;2.33;;;6.30;99.90;;;;;;4157362;28;20567;-83
2022/03/18 04:38:04;;;;;;;9.10;1.90;;;6.30;99.90;;;;;;4160189;28;20548;-83
2022/03/18 04:40:07;;;;;;;7.30;1.90;;;6.20;99.90;;;;;;4155808;28;20459;-82
2022/03/18 04:42:10;;;;;;;6.77;2.10;;;6.30;99.90;;;;;;4150971;28;20471;-83
2022/03/18 04:44:12;;;;;;;9.03;1.80;;;6.20;99.90;;;;;;4150081;28;20448;-83
2022/03/18 04:46:14;;;;;;;6.03;1.93;;;6.30;99.90;;;;;;4159433;28;20478;-83
2022/03/18 04:48:16;;;;;;;8.27;2.00;;;6.20;99.90;;;;;;4147625;28;20492;-83
2022/03/18 04:50:19;;;;;;;11.60;2.10;;;6.20;99.90;;;;;;4146126;28;20466;-83
2022/03/18 04:52:21;;;;;;;6.90;2.10;;;6.30;99.90;;;;;;4146870;28;20463;-83
2022/03/18 04:54:22;;;;;;;5.33;2.00;;;6.20;99.90;;;;;;4155895;28;20461;-83
2022/03/18 04:58:43;;;;;;;7.87;2.30;;;6.20;99.90;;;;;;4151370;28;20494;-82
2022/03/18 05:00:45;;;;;;;9.53;2.40;;;6.20;99.90;;;;;;4149768;28;20496;-82
2022/03/18 05:02:47;;;;;;;10.90;2.70;;;6.20;99.90;;;;;;4151754;28;20472;-83
2022/03/18 05:04:49;;;;;;;10.23;2.17;;;6.20;99.90;;;;;;4151765;28;20471;-83
2022/03/18 05:06:52;;;;;;;7.33;2.17;;;6.20;99.90;;;;;;4163889;28;20460;-82
2022/03/18 05:08:54;;;;;;;7.33;2.50;;;6.10;99.90;;;;;;4162284;28;20460;-82
2022/03/18 05:10:56;;;;;;;8.90;2.47;;;6.10;99.90;;;;;;4135632;28;20482;-83
2022/03/18 05:12:58;;;;;;;10.13;2.63;;;5.80;99.90;;;;;;4148118;28;21233;-82
2022/03/18 05:14:59;;;;;;;6.03;2.30;;;6.10;99.90;;;;;;4149017;28;20462;-83
2022/03/18 05:17:01;;;;;;;6.43;2.03;;;6.10;99.90;;;;;;4158306;28;20487;-82
2022/03/18 05:19:03;;;;;;;6.83;1.93;;;6.20;99.90;;;;;;4153944;28;20456;-81
2022/03/18 05:21:05;;;;;;;5.87;1.73;;;6.20;99.90;;;;;;4163317;28;20491;-82
2022/03/18 05:23:08;;;;;;;9.57;2.00;;;6.10;99.90;;;;;;4158337;28;20473;-83
2022/03/18 05:25:12;;;;;;;9.60;2.20;;;6.10;99.90;;;;;;4138699;28;20472;-84
2022/03/18 05:27:14;;;;;;;9.27;2.43;;;6.00;99.90;;;;;;4154845;28;20507;-82
2022/03/18 05:29:15;;;;;;;5.27;1.80;;;6.00;99.90;;;;;;4140921;28;20448;-83
2022/03/18 05:31:17;;;;;;;6.03;1.90;;;5.70;99.90;;;;;;4145595;28;20479;-82
2022/03/18 05:33:20;;;;;;;7.87;2.20;;;6.00;99.90;;;;;;4140052;28;20494;-83
2022/03/18 05:35:22;;;;;;;10.03;2.10;;;6.00;99.90;;;;;;4142651;28;20494;-82
2022/03/18 05:37:23;;;;;;;7.73;2.50;;;6.00;99.90;;;;;;4139084;28;20492;-82
2022/03/18 05:39:26;;;;;;;11.10;2.63;;;6.00;99.90;;;;;;4152283;28;20459;-83
2022/03/18 05:41:28;;;;;;;12.37;2.37;;;5.90;99.90;;;;;;4137787;28;20552;-83
2022/03/18 05:43:30;;;;;;;8.07;2.37;;;5.90;99.90;;;;;;4140338;28;20465;-82
2022/03/18 05:45:32;;;;;;;6.80;2.00;;;6.10;99.90;;;;;;4128910;28;21068;-82
2022/03/18 05:47:34;;;;;;;7.53;1.93;;;5.90;99.90;;;;;;4144139;28;20479;-83
2022/03/18 05:49:36;;;;;;;5.63;2.17;;;6.10;99.90;;;;;;4144234;28;20970;-81
2022/03/18 05:51:38;;;;;;;8.23;3.07;;;5.90;99.90;;;;;;4145370;28;20447;-83
2022/03/18 05:53:39;;;;;;;8.03;2.20;;;5.90;99.90;;;;;;4144085;28;20491;-83
2022/03/18 05:58:01;;;;;;;8.87;2.17;;;6.00;99.90;;;;;;4145879;28;20512;-83
2022/03/18 06:00:04;;;;;;;5.83;2.17;;;5.80;99.90;;;;;;4147544;28;20481;-82
2022/03/18 06:02:06;;;;;;;7.47;1.87;;;5.80;99.90;;;;;;4147979;28;20511;-82
2022/03/18 06:04:10;;;;;;;7.17;2.20;;;6.80;99.90;;;;;;4142188;28;20546;-82
2022/03/18 06:06:13;;;;;;;7.67;2.53;;;6.00;99.90;;;;;;4146423;28;20469;-83
2022/03/18 06:12:54;;;;;;;8.47;2.03;;;5.70;99.90;;;;;;4148753;28;20977;-83
2022/03/18 06:14:56;;;;;;;5.97;1.90;;;5.70;99.90;;;;;;4138163;28;20523;-82
2022/03/18 06:17:00;;;;;;;10.50;2.30;;;5.70;99.90;;;;;;4148473;28;20455;-83
2022/03/18 06:19:02;;;;;;;6.30;1.90;;;5.70;99.90;;;;;;4149921;28;20463;-82
2022/03/18 06:21:06;;;;;;;7.83;2.10;;;6.20;99.90;;;;;;4145095;28;20506;-83
2022/03/18 06:23:08;;;;;;;6.80;2.23;;;5.70;99.90;;;;;;4145385;28;20562;-82
2022/03/18 06:25:10;;;;;;;12.87;2.40;;;6.20;99.90;;;;;;4145895;28;20474;-83
2022/03/18 06:27:12;;;;;;;11.80;2.67;;;5.60;99.90;;;;;;4148064;28;20553;-83
2022/03/18 06:29:15;;;;;;;8.40;2.23;;;5.60;99.90;;;;;;4149478;28;20471;-82
2022/03/18 06:31:17;;;;;;;7.90;2.30;;;5.80;99.90;;;;;;4150159;28;20970;-84
2022/03/18 06:33:19;;;;;;;7.87;2.80;;;5.60;99.90;;;;;;4147276;28;21332;-83
2022/03/18 06:35:21;;;;;;;6.57;2.00;;;5.60;99.90;;;;;;4149688;28;20476;-85
2022/03/18 06:37:23;;;;;;;9.07;2.13;;;5.60;99.90;;;;;;4149907;28;20482;-81
2022/03/18 06:39:27;;;;;;;10.40;2.40;;;6.20;99.90;;;;;;4150088;28;20483;-84
2022/03/18 06:41:29;;;;;;;12.40;2.80;;;5.60;99.90;;;;;;4146742;28;20933;-82
2022/03/18 06:43:31;;;;;;;15.17;3.50;;;5.60;99.90;;;;;;4148931;28;20541;-84
2022/03/18 06:45:34;;;;;;;12.20;2.80;;;5.60;99.90;;;;;;4149631;28;20452;-82
2022/03/18 06:47:36;;;;;;;11.37;3.60;;;5.60;99.90;;;;;;4151932;28;20483;-83
2022/03/18 06:49:38;;;;;;;11.73;3.17;;;5.50;99.90;;;;;;4155569;28;20462;-83
2022/03/18 06:51:40;;;;;;;8.00;2.30;;;5.60;99.90;;;;;;4144444;28;20468;-82
2022/03/18 06:53:42;;;;;;;8.40;2.63;;;5.60;99.90;;;;;;4146097;28;20501;-81
2022/03/18 06:55:44;;;;;;;10.43;2.40;;;5.60;99.90;;;;;;4149008;28;20477;-81
2022/03/18 06:57:46;;;;;;;11.27;2.67;;;5.80;99.90;;;;;;4142854;28;20515;-84
2022/03/18 06:59:48;;;;;;;9.13;2.73;;;5.60;99.90;;;;;;4151903;28;20482;-82
2022/03/18 07:01:53;;;;;;;7.80;2.27;;;5.50;99.90;;;;;;4152707;28;20470;-81
2022/03/18 07:03:55;;;;;;;7.03;2.90;;;5.50;99.90;;;;;;4150451;28;20464;-82
2022/03/18 07:05:56;;;;;;;11.30;3.00;;;5.50;99.90;;;;;;4137895;28;20466;-81
2022/03/18 07:07:58;;;;;;;10.23;2.60;;;5.50;99.90;;;;;;4147986;28;20479;-85
2022/03/18 07:10:00;;;;;;;9.33;2.93;;;5.70;99.90;;;;;;4142701;28;21752;-82
2022/03/18 07:12:02;;;;;;;10.57;2.80;;;5.50;99.90;;;;;;4142328;28;20469;-86
2022/03/18 07:14:04;;;;;;;9.23;2.80;;;5.50;99.90;;;;;;4141235;28;20561;-85
2022/03/18 07:18:23;;;;;;;9.30;2.40;;;5.50;99.90;;;;;;4122401;28;20505;-84
2022/03/18 07:20:25;;;;;;;9.93;2.80;;;6.90;99.90;;;;;;4147297;28;20562;-80
2022/03/18 07:22:28;;;;;;;8.13;2.20;;;5.50;99.90;;;;;;4144912;28;20526;-85
2022/03/18 07:24:30;;;;;;;10.47;2.63;;;5.50;99.90;;;;;;4148853;28;20533;-83
2022/03/18 07:26:32;;;;;;;10.47;2.77;;;5.80;99.90;;;;;;4142641;28;20470;-82
2022/03/18 07:28:34;;;;;;;6.80;2.20;;;5.90;99.90;;;;;;4148207;28;20482;-81
2022/03/18 07:30:36;;;;;;;7.50;2.43;;;5.50;99.90;;;;;;4144883;28;20491;-84
2022/03/18 07:32:38;;;;;;;6.60;2.33;;;5.60;99.90;;;;;;4146677;28;20461;-84
2022/03/18 07:34:41;;;;;;;16.27;3.07;;;5.80;99.90;;;;;;4160580;28;20496;-82
2022/03/18 07:36:43;;;;;;;8.37;2.80;;;5.80;99.90;;;;;;4143774;28;20469;-83
2022/03/18 07:38:45;;;;;;;12.90;3.00;;;5.60;99.90;;;;;;4147298;28;20497;-82
2022/03/18 07:40:47;;;;;;;9.60;3.00;;;5.90;99.90;;;;;;4149085;28;20463;-82
2022/03/18 07:42:50;;;;;;;9.40;2.80;;;5.60;99.90;;;;;;4144631;28;20468;-81
2022/03/18 07:44:52;;;;;;;8.13;2.93;;;5.70;99.90;;;;;;4148111;28;20473;-83
2022/03/18 07:46:54;;;;;;;7.33;2.53;;;5.90;99.90;;;;;;4149017;28;20470;-84
2022/03/18 07:48:55;;;;;;;9.63;3.20;;;5.70;99.90;;;;;;4138364;28;20795;-84
2022/03/18 07:50:59;;;;;;;9.70;2.70;;;5.70;99.90;;;;;;4146484;28;20480;-81
2022/03/18 07:53:02;;;;;;;11.03;3.37;;;5.70;99.90;;;;;;4152941;28;20459;-84
2022/03/18 07:55:05;;;;;;;7.90;2.80;;;5.70;99.90;;;;;;4156799;28;20487;-85
2022/03/18 07:57:07;;;;;;;9.80;2.80;;;5.70;99.90;;;;;;4157562;28;20479;-85
2022/03/18 07:59:08;;;;;;;12.03;2.60;;;5.70;99.90;;;;;;4157350;28;20456;-83
2022/03/18 08:01:11;;;;;;;6.73;2.50;;;5.80;99.90;;;;;;4160104;28;20450;-86
2022/03/18 08:03:13;;;;;;;9.37;2.57;;;6.60;99.90;;;;;;4157189;28;20463;-81
2022/03/18 08:05:15;;;;;;;8.23;2.90;;;5.90;99.90;;;;;;4160245;28;20490;-81
2022/03/18 08:07:19;;;;;;;11.17;2.83;;;5.90;99.90;;;;;;4161639;28;20489;-82
2022/03/18 08:09:21;;;;;;;9.73;3.10;;;5.90;99.90;;;;;;4159295;28;20452;-81
2022/03/18 08:11:22;;;;;;;11.37;3.60;;;6.00;99.90;;;;;;4141343;28;20442;-80
2022/03/18 08:13:25;;;;;;;11.73;3.23;;;6.00;99.90;;;;;;4150438;28;20477;-80
2022/03/18 08:15:28;;;;;;;10.90;3.20;;;6.00;99.90;;;;;;4160660;28;20458;-82
2022/03/18 08:17:29;;;;;;;12.37;3.07;;;6.00;99.90;;;;;;4152397;28;20489;-80
2022/03/18 08:19:31;;;;;;;10.40;2.77;;;6.10;99.90;;;;;;4146600;28;20490;-80
2022/03/18 08:21:34;;;;;;;8.40;2.50;;;6.10;99.90;;;;;;4141628;28;20460;-82
2022/03/18 08:23:38;;;;;;;7.90;2.77;;;6.10;99.90;;;;;;4141765;28;20466;-81
2022/03/18 08:25:40;;;;;;;7.00;2.40;;;6.20;99.90;;;;;;4142281;28;20516;-80
2022/03/18 08:27:41;;;;;;;9.00;2.43;;;6.20;99.90;;;;;;4141430;28;21148;-80
2022/03/18 08:29:45;;;;;;;12.13;2.70;;;7.00;99.90;;;;;;4142260;28;20484;-82
2022/03/18 08:31:46;;;;;;;9.37;2.47;;;6.20;99.90;;;;;;4145761;28;20493;-79
2022/03/18 08:33:48;;;;;;;7.70;2.80;;;5.90;99.90;;;;;;4143972;28;20895;-84
2022/03/18 08:35:50;;;;;;;7.57;2.60;;;6.30;99.90;;;;;;4140606;28;20469;-81
2022/03/18 08:37:58;;;;;;;14.00;2.60;;;6.30;99.90;;;;;;4143397;28;20512;-80
2022/03/18 08:40:01;;;;;;;12.93;2.80;;;6.30;99.90;;;;;;4145950;28;21128;-81
2022/03/18 08:42:03;;;;;;;7.90;2.77;;;6.30;99.90;;;;;;4139974;28;21330;-80
2022/03/18 08:44:05;;;;;;;7.40;2.50;;;6.30;99.90;;;;;;4138728;28;20462;-81
2022/03/18 08:46:07;;;;;;;11.10;2.77;;;6.70;99.90;;;;;;4126169;28;20540;-82
2022/03/18 08:48:09;;;;;;;9.27;2.87;;;6.30;99.90;;;;;;4139217;28;20552;-82
2022/03/18 08:50:11;;;;;;;11.23;3.10;;;7.20;99.90;;;;;;4149737;28;20523;-79
2022/03/18 08:52:13;;;;;;;9.37;2.80;;;6.50;99.90;;;;;;4142681;28;20470;-81
2022/03/18 08:54:15;;;;;;;11.60;2.70;;;6.60;99.90;;;;;;4147706;28;20502;-83
2022/03/18 08:56:21;;;;;;;7.50;2.17;;;6.50;99.90;;;;;;4142207;28;20467;-81
2022/03/18 08:58:24;;;;;;;8.53;2.43;;;6.60;99.90;;;;;;4145819;28;20490;-80
2022/03/18 09:00:26;;;;;;;11.63;2.30;;;6.80;99.90;;;;;;4136985;28;20878;-81
2022/03/18 09:02:28;;;;;;;10.40;2.60;;;6.70;99.90;;;;;;4137986;28;20479;-82
2022/03/18 09:04:30;;;;;;;7.23;2.20;;;6.80;99.90;;;;;;4141080;28;20865;-80
2022/03/18 09:06:32;;;;;;;7.93;2.17;;;6.80;99.90;;;;;;4141666;28;21025;-80
2022/03/18 09:08:36;;;;;;;10.70;2.90;;;6.90;99.90;;;;;;4141333;28;20546;-83
2022/03/18 09:10:38;;;;;;;9.30;2.90;;;6.90;99.90;;;;;;4151620;28;20470;-82
2022/03/18 09:12:46;;;;;;;8.47;2.37;;;6.60;99.90;;;;;;4143571;28;20465;-82
2022/03/18 09:14:48;;;;;;;7.17;2.10;;;7.00;99.90;;;;;;4146146;28;20485;-83
2022/03/18 09:16:50;;;;;;;9.17;2.33;;;7.00;99.90;;;;;;4138077;28;20513;-82
2022/03/18 09:18:52;;;;;;;11.43;2.53;;;7.10;99.90;;;;;;4145969;28;20483;-82
2022/03/18 09:20:53;;;;;;;8.53;2.70;;;7.30;99.90;;;;;;4145447;28;20464;-81
2022/03/18 09:22:55;;;;;;;7.93;2.60;;;7.20;99.90;;;;;;4152699;28;20455;-82
2022/03/18 09:24:57;;;;;;;12.40;2.70;;;7.20;99.90;;;;;;4150019;28;20504;-82
2022/03/18 09:26:59;;;;;;;7.00;2.17;;;7.20;99.90;;;;;;4145604;28;20485;-82
2022/03/18 09:29:02;;;;;;;9.83;2.83;;;7.00;99.90;;;;;;4144534;28;20478;-83
2022/03/18 09:31:04;;;;;;;10.97;2.73;;;7.30;99.90;;;;;;4143822;28;21371;-82
2022/03/18 09:33:05;;;;;;;7.93;2.27;;;7.30;99.90;;;;;;4143051;28;20470;-82
2022/03/18 09:35:08;;;;;;;7.73;2.33;;;7.40;99.90;;;;;;4138446;28;20500;-81
2022/03/18 09:37:10;;;;;;;11.33;2.53;;;7.40;99.90;;;;;;4142131;28;20551;-81
2022/03/18 09:39:12;;;;;;;9.73;2.50;;;7.50;99.90;;;;;;4145871;28;20463;-81
2022/03/18 09:41:14;;;;;;;9.23;2.30;;;7.50;99.90;;;;;;4143932;28;20564;-80
2022/03/18 09:43:15;;;;;;;9.60;2.50;;;7.50;99.90;;;;;;4141303;28;20532;-83
2022/03/18 09:45:20;;;;;;;8.83;3.40;;;7.60;99.90;;;;;;4142181;28;20802;-83
2022/03/18 09:47:22;;;;;;;13.37;4.60;;;7.60;99.90;;;;;;4142091;28;21234;-83
2022/03/18 09:49:24;;;;;;;15.13;4.63;;;7.70;99.90;;;;;;4141197;28;20458;-81
2022/03/18 09:51:26;;;;;;;10.33;3.13;;;7.90;99.90;;;;;;4140567;28;20490;-82
2022/03/18 09:53:28;;;;;;;13.77;2.77;;;7.80;99.90;;;;;;4141524;28;20470;-82
2022/03/18 09:55:31;;;;;;;9.70;2.90;;;8.10;99.90;;;;;;4140866;28;20483;-83
2022/03/18 09:57:33;;;;;;;8.20;2.37;;;7.90;99.90;;;;;;4139396;28;20493;-82
2022/03/18 09:59:35;;;;;;;12.93;2.60;;;7.90;99.90;;;;;;4143799;28;20269;-82
2022/03/18 10:01:39;;;;;;;11.47;2.57;;;7.90;99.90;;;;;;4141006;28;20470;-82
2022/03/18 10:03:42;;;;;;;7.90;2.87;;;8.00;99.90;;;;;;4141024;28;20521;-83
2022/03/18 10:05:49;;;;;;;8.20;2.20;;;8.10;99.90;;;;;;4142186;28;20212;-82
2022/03/18 10:07:56;;;;;;;10.53;2.43;;;8.20;99.90;;;;;;4146691;28;21125;-81
2022/03/18 10:10:02;;;;;;;10.40;2.77;;;8.30;99.90;;;;;;4144133;28;20246;-82
2022/03/18 10:12:04;;;;;;;9.70;2.63;;;8.40;99.90;;;;;;4147477;28;20229;-81
2022/03/18 10:14:08;;;;;;;9.50;2.60;;;8.50;99.90;;;;;;4141706;28;20640;-81
2022/03/18 10:16:10;;;;;;;8.57;2.67;;;8.60;99.90;;;;;;4141974;28;20243;-81
2022/03/18 10:18:14;;;;;;;8.93;2.80;;;8.80;99.90;;;;;;4138583;28;20953;-80
2022/03/18 10:20:29;;;;;;;10.93;2.83;;;8.70;99.90;;;;;;4143954;28;20219;-81
2022/03/18 10:22:36;;;;;;;9.17;3.07;;;8.80;99.90;;;;;;4135058;28;20251;-80
2022/03/18 10:24:41;;;;;;;10.17;2.93;;;8.90;99.90;;;;;;4137172;28;20203;-82
2022/03/18 10:26:43;;;;;;;9.07;2.80;;;9.10;99.90;;;;;;4132588;28;20214;-79
2022/03/18 10:28:46;;;;;;;9.80;2.83;;;9.10;99.90;;;;;;4137691;28;20223;-81
2022/03/18 10:30:48;;;;;;;13.03;2.73;;;9.30;99.90;;;;;;4148814;28;20212;-84
2022/03/18 10:32:50;;;;;;;7.63;2.80;;;9.40;99.90;;;;;;4139532;28;20580;-80
2022/03/18 10:37:14;;;;;;;10.43;2.93;;;9.40;99.90;;;;;;4133911;28;20269;-82
2022/03/18 10:39:23;;;;;;;8.00;2.47;;;9.80;99.90;;;;;;4136812;28;20252;-80
2022/03/18 10:41:26;;;;;;;9.87;3.30;;;9.80;99.90;;;;;;4132358;28;20276;-81
2022/03/18 10:43:28;;;;;;;11.80;3.17;;;9.80;99.90;;;;;;4134231;28;20234;-80
2022/03/18 10:45:29;;;;;;;11.43;3.90;;;9.80;99.90;;;;;;4132849;28;20229;-79
2022/03/18 10:47:34;;;;;;;7.17;3.10;;;9.90;99.90;;;;;;4142231;28;20248;-79
2022/03/18 10:49:38;;;;;;;11.63;4.03;;;10.60;99.90;;;;;;4150790;28;20209;-82
2022/03/18 10:51:41;;;;;;;10.27;4.00;;;10.10;99.90;;;;;;4143981;28;20292;-81
2022/03/18 10:53:56;;;;;;;10.43;4.10;;;10.60;99.90;;;;;;4153322;28;20240;-81
2022/03/18 10:56:01;;;;;;;12.73;4.83;;;10.40;99.90;;;;;;4143991;28;20238;-81
2022/03/18 10:58:10;;;;;;;10.70;4.33;;;10.50;99.90;;;;;;4152877;28;20241;-81
2022/03/18 11:00:13;;;;;;;12.43;5.00;;;10.80;99.90;;;;;;4144162;28;20198;-80
2022/03/18 11:02:17;;;;;;;11.67;4.40;;;10.70;99.90;;;;;;4135616;28;20622;-80
2022/03/18 11:04:20;;;;;;;13.80;4.17;;;10.70;99.90;;;;;;4146385;28;20236;-81
2022/03/18 11:06:21;;;;;;;13.80;4.23;;;10.80;99.90;;;;;;4153499;28;20226;-80
2022/03/18 11:08:35;;;;;;;14.13;4.37;;;10.80;99.90;;;;;;4142262;28;20884;-81